Time;durP1;ratioP1;P1;durP2;ratioP2;P2;SDS_P1;SDS_P2;PMS_P1;PMS_P2;Temp;Humidity;BMP_temperature;BMP_pressure;BME280_temperature;BME280_humidity;BME280_pressure;Samples;Min_cycle;Max_cycle;Signal;HPM_P1;HPM_P2
2023/03/30 00:02:04;;;;;;;33.92;24.35;;;10.40;99.90;;;;;;4935069;29;20484;-87
2023/03/30 00:04:33;;;;;;;38.20;23.48;;;10.40;99.90;;;;;;4934326;29;20047;-87
2023/03/30 00:06:59;;;;;;;31.55;23.15;;;10.40;99.90;;;;;;4934500;29;20507;-87
2023/03/30 00:09:29;;;;;;;33.90;23.70;;;10.40;99.90;;;;;;4934206;29;20059;-87
2023/03/30 00:11:55;;;;;;;37.40;23.85;;;10.40;99.90;;;;;;4933903;29;20452;-88
2023/03/30 00:14:28;;;;;;;33.60;22.75;;;10.40;99.90;;;;;;4934511;29;20057;-87
2023/03/30 00:16:55;;;;;;;35.25;22.13;;;10.40;99.90;;;;;;4934765;29;20051;-87
2023/03/30 00:19:21;;;;;;;32.75;22.30;;;10.40;99.90;;;;;;4933945;29;20495;-87
2023/03/30 00:21:48;;;;;;;33.50;22.88;;;10.40;99.90;;;;;;4933958;29;20055;-87
2023/03/30 00:24:14;;;;;;;36.45;21.38;;;10.40;99.90;;;;;;4933937;29;20044;-87
2023/03/30 00:26:40;;;;;;;31.38;21.10;;;10.40;99.90;;;;;;4927954;29;20059;-87
2023/03/30 00:29:06;;;;;;;34.95;22.08;;;10.40;99.90;;;;;;4934390;29;20082;-88
2023/03/30 00:31:31;;;;;;;34.47;21.45;;;10.40;99.90;;;;;;4918296;29;20093;-88
2023/03/30 00:33:57;;;;;;;34.60;22.02;;;10.50;99.90;;;;;;4936187;28;20057;-87
2023/03/30 00:36:23;;;;;;;33.30;20.35;;;10.40;99.90;;;;;;4927942;28;20109;-86
2023/03/30 00:38:49;;;;;;;31.77;20.33;;;10.50;99.90;;;;;;4936406;28;20191;-87
2023/03/30 00:41:15;;;;;;;28.45;19.58;;;10.50;99.90;;;;;;4952175;28;20541;-88
2023/03/30 00:43:57;;;;;;;31.35;18.92;;;10.50;99.90;;;;;;4953023;28;20180;-87
2023/03/30 00:46:23;;;;;;;27.88;18.27;;;10.50;99.90;;;;;;4952489;28;20414;-87
2023/03/30 00:48:49;;;;;;;24.60;15.90;;;10.50;99.90;;;;;;4936135;28;20043;-87
2023/03/30 00:51:16;;;;;;;24.05;16.33;;;10.50;99.90;;;;;;4952315;28;20124;-88
2023/03/30 00:53:48;;;;;;;22.30;15.45;;;10.50;99.90;;;;;;4952451;28;20418;-87
2023/03/30 00:56:16;;;;;;;21.02;14.52;;;10.60;99.90;;;;;;4937075;28;20047;-87
2023/03/30 00:58:44;;;;;;;18.95;12.32;;;10.60;99.90;;;;;;4936771;28;20490;-87
2023/03/30 01:01:17;;;;;;;18.85;11.23;;;10.60;99.90;;;;;;4935499;28;20047;-87
2023/03/30 01:03:46;;;;;;;14.77;10.52;;;10.60;99.90;;;;;;4953170;28;20055;-87
2023/03/30 01:06:16;;;;;;;18.95;10.90;;;10.70;99.90;;;;;;4936027;28;20046;-87
2023/03/30 01:08:43;;;;;;;17.27;10.85;;;10.80;99.90;;;;;;4936177;28;20182;-87
2023/03/30 01:11:10;;;;;;;19.88;10.80;;;10.80;99.90;;;;;;4936495;28;20055;-87
2023/03/30 01:13:38;;;;;;;20.45;10.10;;;10.80;99.90;;;;;;4952607;28;20047;-87
2023/03/30 01:16:22;;;;;;;16.90;10.88;;;10.80;99.90;;;;;;4935254;28;20043;-88
2023/03/30 01:19:28;;;;;;;17.33;9.90;;;10.80;99.90;;;;;;4936496;28;20056;-87
2023/03/30 01:22:07;;;;;;;17.45;9.82;;;10.90;99.90;;;;;;4934297;28;20142;-86
2023/03/30 01:24:41;;;;;;;18.13;9.38;;;10.90;99.90;;;;;;4936266;28;20039;-87
2023/03/30 01:27:38;;;;;;;14.95;8.73;;;10.90;99.90;;;;;;4936788;28;20046;-88
2023/03/30 01:30:29;;;;;;;14.48;8.57;;;10.90;99.90;;;;;;4933192;28;20129;-87
2023/03/30 01:33:02;;;;;;;13.15;8.95;;;10.90;99.90;;;;;;4933963;29;20051;-88
2023/03/30 01:35:51;;;;;;;12.98;8.32;;;10.90;99.90;;;;;;4932891;29;20134;-87
2023/03/30 01:38:32;;;;;;;15.40;9.32;;;10.90;99.90;;;;;;4933260;29;20051;-87
2023/03/30 01:41:12;;;;;;;14.32;8.68;;;10.90;99.90;;;;;;4933469;29;20476;-88
2023/03/30 01:43:48;;;;;;;12.88;7.88;;;10.90;99.90;;;;;;4932635;29;20368;-88
2023/03/30 01:46:23;;;;;;;15.98;8.32;;;10.90;99.90;;;;;;4932728;29;20051;-88
2023/03/30 01:49:02;;;;;;;16.75;9.02;;;10.90;99.90;;;;;;4916197;29;20047;-88
2023/03/30 01:51:34;;;;;;;15.07;7.53;;;10.90;99.90;;;;;;4916014;29;20189;-87
2023/03/30 01:54:09;;;;;;;14.13;8.00;;;11.00;99.90;;;;;;4917649;29;20696;-87
2023/03/30 01:56:45;;;;;;;14.95;7.57;;;11.10;99.90;;;;;;4916223;29;20066;-86
2023/03/30 01:59:25;;;;;;;13.25;6.50;;;11.10;99.90;;;;;;4916423;29;20046;-88
2023/03/30 02:01:59;;;;;;;10.73;6.55;;;11.10;99.90;;;;;;4916843;29;20055;-88
2023/03/30 02:04:27;;;;;;;13.88;6.18;;;11.10;99.90;;;;;;4917584;29;20043;-88
2023/03/30 02:06:59;;;;;;;13.02;6.40;;;11.10;99.90;;;;;;4915990;29;20051;-87
2023/03/30 02:09:28;;;;;;;17.75;6.43;;;11.20;99.90;;;;;;4916372;29;20085;-87
2023/03/30 02:11:55;;;;;;;14.30;5.93;;;11.20;99.90;;;;;;4930949;29;20054;-87
2023/03/30 02:14:25;;;;;;;12.00;6.13;;;11.20;99.90;;;;;;4916427;29;20142;-87
2023/03/30 02:16:59;;;;;;;12.32;5.60;;;11.30;99.90;;;;;;4915214;29;20424;-87
2023/03/30 02:19:25;;;;;;;14.05;5.97;;;11.20;99.90;;;;;;4915120;29;20043;-88
2023/03/30 02:21:50;;;;;;;13.57;5.50;;;11.30;99.90;;;;;;4914916;29;20051;-87
2023/03/30 02:24:21;;;;;;;12.82;5.28;;;11.30;99.90;;;;;;4915826;29;20047;-87
2023/03/30 02:26:50;;;;;;;10.30;4.97;;;11.20;99.90;;;;;;4915028;29;20468;-86
2023/03/30 02:29:17;;;;;;;10.32;5.03;;;11.30;99.90;;;;;;4915752;29;20047;-87
2023/03/30 02:31:45;;;;;;;14.73;5.65;;;11.30;99.90;;;;;;4915032;29;20040;-87
2023/03/30 02:34:30;;;;;;;10.48;5.00;;;11.30;99.90;;;;;;4915863;29;20078;-87
2023/03/30 02:37:03;;;;;;;16.85;5.00;;;11.30;99.90;;;;;;4930774;28;20043;-87
2023/03/30 02:39:42;;;;;;;9.40;5.03;;;11.30;99.90;;;;;;4931991;29;20035;-87
2023/03/30 02:42:21;;;;;;;13.38;4.90;;;11.30;99.90;;;;;;4916049;29;20094;-86
2023/03/30 02:45:02;;;;;;;11.57;5.40;;;11.30;99.90;;;;;;4915852;29;20047;-87
2023/03/30 02:47:42;;;;;;;10.63;4.78;;;11.30;99.90;;;;;;4915229;29;20047;-86
2023/03/30 02:50:16;;;;;;;17.33;5.00;;;11.30;99.90;;;;;;4916025;29;20047;-88
2023/03/30 02:52:46;;;;;;;11.55;4.82;;;11.30;99.90;;;;;;4915204;29;20043;-87
2023/03/30 02:55:21;;;;;;;10.98;4.55;;;11.30;99.90;;;;;;4930473;29;20051;-87
2023/03/30 02:58:03;;;;;;;12.60;5.38;;;11.30;99.90;;;;;;4915049;29;20145;-87
2023/03/30 03:00:40;;;;;;;14.13;4.82;;;11.30;99.90;;;;;;4916595;29;20652;-87
2023/03/30 03:03:17;;;;;;;10.75;4.93;;;11.30;99.90;;;;;;4918398;29;20506;-87
2023/03/30 03:05:43;;;;;;;13.82;4.55;;;11.40;99.90;;;;;;4917794;29;20058;-87
2023/03/30 03:08:12;;;;;;;12.85;5.10;;;11.40;99.90;;;;;;4895286;29;1124346;-87
2023/03/30 03:10:38;;;;;;;10.75;5.20;;;11.40;99.90;;;;;;4919152;29;20370;-86
2023/03/30 03:13:04;;;;;;;17.02;5.00;;;11.40;99.90;;;;;;4919322;29;20054;-86
2023/03/30 03:15:30;;;;;;;10.80;4.38;;;11.40;99.90;;;;;;4918832;29;20134;-86
2023/03/30 03:17:57;;;;;;;12.77;4.72;;;11.40;99.90;;;;;;4919754;29;20050;-87
2023/03/30 03:20:23;;;;;;;14.15;4.80;;;11.50;99.90;;;;;;4934743;29;20125;-86
2023/03/30 03:22:48;;;;;;;12.98;4.28;;;11.50;99.90;;;;;;4919110;29;20464;-87
2023/03/30 03:25:14;;;;;;;10.27;3.60;;;11.50;99.90;;;;;;4935017;29;20475;-86
2023/03/30 03:27:40;;;;;;;11.15;3.97;;;11.50;99.90;;;;;;4935124;29;20039;-87
2023/03/30 03:30:06;;;;;;;13.63;3.60;;;11.60;99.90;;;;;;4918578;29;20044;-87
2023/03/30 03:32:32;;;;;;;11.65;3.38;;;11.60;99.90;;;;;;4919329;29;20047;-86
2023/03/30 03:34:57;;;;;;;12.05;3.63;;;11.50;99.90;;;;;;4935220;28;20053;-86
2023/03/30 03:37:23;;;;;;;14.13;3.63;;;11.50;99.90;;;;;;4933340;28;20047;-86
2023/03/30 03:39:49;;;;;;;8.63;3.55;;;11.50;99.90;;;;;;4935222;29;20050;-86
2023/03/30 03:42:15;;;;;;;9.10;3.83;;;11.40;99.90;;;;;;4918652;29;20501;-86
2023/03/30 03:44:41;;;;;;;10.68;3.50;;;11.40;99.90;;;;;;4917961;29;20043;-86
2023/03/30 03:47:07;;;;;;;12.75;3.70;;;11.40;99.90;;;;;;4934635;29;20055;-86
2023/03/30 03:49:32;;;;;;;8.88;3.63;;;11.40;99.90;;;;;;4917670;29;20381;-86
2023/03/30 03:51:58;;;;;;;11.70;3.92;;;11.40;99.90;;;;;;4934359;29;20043;-86
2023/03/30 03:54:24;;;;;;;11.40;3.83;;;11.40;99.90;;;;;;4918837;29;20074;-86
2023/03/30 03:56:50;;;;;;;12.75;3.97;;;11.50;99.90;;;;;;4917345;29;20151;-86
2023/03/30 03:59:16;;;;;;;10.13;3.75;;;11.50;99.90;;;;;;4934398;29;20106;-86
2023/03/30 04:01:42;;;;;;;18.05;3.80;;;11.50;99.90;;;;;;4933804;29;20039;-85
2023/03/30 04:04:07;;;;;;;13.70;3.50;;;11.60;99.90;;;;;;4918069;29;20051;-86
2023/03/30 04:06:33;;;;;;;9.73;3.40;;;11.60;99.90;;;;;;4917629;29;20134;-86
2023/03/30 04:09:00;;;;;;;13.38;3.22;;;11.60;99.90;;;;;;4933974;29;20051;-86
2023/03/30 04:11:26;;;;;;;11.15;3.20;;;11.60;99.90;;;;;;4932678;29;20381;-86
2023/03/30 04:13:52;;;;;;;12.38;4.32;;;11.60;99.90;;;;;;4933613;29;20042;-86
2023/03/30 04:16:18;;;;;;;12.10;2.78;;;11.60;99.90;;;;;;4933935;29;20050;-86
2023/03/30 04:18:43;;;;;;;15.00;3.22;;;11.60;99.90;;;;;;4933075;29;20043;-86
2023/03/30 04:21:11;;;;;;;11.02;2.83;;;11.60;99.90;;;;;;4917450;29;20061;-86
2023/03/30 04:23:38;;;;;;;9.65;3.20;;;11.60;99.90;;;;;;4917924;29;20085;-85
2023/03/30 04:26:06;;;;;;;10.65;3.33;;;11.60;99.90;;;;;;4917013;29;20043;-86
2023/03/30 04:28:34;;;;;;;9.30;2.67;;;11.60;99.90;;;;;;4943757;28;20129;-86
2023/03/30 04:31:02;;;;;;;11.60;2.97;;;11.60;99.90;;;;;;4963776;28;20043;-85
2023/03/30 04:33:28;;;;;;;10.05;2.90;;;11.60;99.90;;;;;;4943600;28;20078;-85
2023/03/30 04:35:54;;;;;;;13.38;3.22;;;11.60;99.90;;;;;;4951279;28;20081;-85
2023/03/30 04:38:21;;;;;;;13.23;2.63;;;11.60;99.90;;;;;;4952492;28;20042;-85
2023/03/30 04:40:48;;;;;;;16.23;3.33;;;11.60;99.90;;;;;;4951307;28;20049;-85
2023/03/30 04:43:18;;;;;;;13.13;3.50;;;11.60;99.90;;;;;;4936660;28;20509;-86
2023/03/30 04:45:50;;;;;;;10.55;3.63;;;11.50;99.90;;;;;;4935431;28;20065;-85
2023/03/30 04:48:16;;;;;;;14.95;3.30;;;11.50;99.90;;;;;;4936715;28;20440;-86
2023/03/30 04:50:42;;;;;;;9.45;3.08;;;11.50;99.90;;;;;;4935649;28;20094;-85
2023/03/30 04:53:09;;;;;;;15.05;3.63;;;11.50;99.90;;;;;;4935991;28;20050;-85
2023/03/30 04:55:35;;;;;;;12.20;3.33;;;11.60;99.90;;;;;;4935901;28;20133;-86
2023/03/30 04:58:01;;;;;;;9.07;2.60;;;11.60;99.90;;;;;;4936028;28;20055;-85
2023/03/30 05:00:27;;;;;;;8.85;2.70;;;11.60;99.90;;;;;;4935567;28;20564;-86
2023/03/30 05:02:53;;;;;;;10.15;2.88;;;11.60;99.90;;;;;;4951799;28;20047;-85
2023/03/30 05:05:19;;;;;;;12.93;3.35;;;11.60;99.90;;;;;;4936464;28;20125;-85
2023/03/30 05:07:45;;;;;;;17.27;3.78;;;11.60;99.90;;;;;;4934656;28;20101;-86
2023/03/30 05:10:11;;;;;;;12.68;3.10;;;11.60;99.90;;;;;;4935559;28;20051;-85
2023/03/30 05:12:37;;;;;;;15.75;3.55;;;11.60;99.90;;;;;;4935758;28;20049;-85
2023/03/30 05:15:04;;;;;;;11.55;3.72;;;11.60;99.90;;;;;;4934530;28;20137;-86
2023/03/30 05:17:32;;;;;;;12.07;3.53;;;11.60;99.90;;;;;;4936178;28;20510;-85
2023/03/30 05:19:58;;;;;;;11.23;3.10;;;11.60;99.90;;;;;;4935502;28;20045;-86
2023/03/30 05:22:24;;;;;;;11.55;3.08;;;11.60;99.90;;;;;;4950421;28;20046;-85
2023/03/30 05:24:51;;;;;;;13.40;2.90;;;11.60;99.90;;;;;;4936122;28;20058;-85
2023/03/30 05:27:17;;;;;;;14.75;3.45;;;11.60;99.90;;;;;;4934964;28;20042;-85
2023/03/30 05:29:43;;;;;;;12.55;3.60;;;11.60;99.90;;;;;;4934169;28;20096;-85
2023/03/30 05:32:09;;;;;;;12.68;3.72;;;11.60;99.90;;;;;;4916020;29;20043;-84
2023/03/30 05:34:35;;;;;;;16.42;4.15;;;11.60;99.90;;;;;;4916389;29;20093;-85
2023/03/30 05:37:01;;;;;;;14.68;4.47;;;11.70;99.90;;;;;;4914848;29;20491;-85
2023/03/30 05:39:27;;;;;;;12.57;3.35;;;11.60;99.90;;;;;;4916831;29;20043;-85
2023/03/30 05:41:53;;;;;;;13.15;3.88;;;11.70;99.90;;;;;;4916353;29;20419;-85
2023/03/30 05:44:18;;;;;;;12.52;3.88;;;11.70;99.90;;;;;;4915311;28;20046;-85
2023/03/30 05:46:44;;;;;;;10.43;3.35;;;11.70;99.90;;;;;;4944491;28;20044;-86
2023/03/30 05:49:10;;;;;;;13.82;4.30;;;11.70;99.90;;;;;;4950370;28;20050;-86
2023/03/30 05:51:35;;;;;;;15.27;3.28;;;11.70;99.90;;;;;;4933887;28;20042;-85
2023/03/30 05:54:02;;;;;;;12.45;3.40;;;11.70;99.90;;;;;;4925250;28;20399;-85
2023/03/30 05:56:28;;;;;;;16.80;4.15;;;11.70;99.90;;;;;;4926401;28;20074;-85
2023/03/30 05:58:54;;;;;;;16.05;3.65;;;11.70;99.90;;;;;;4932836;28;20506;-85
2023/03/30 06:01:20;;;;;;;11.60;3.90;;;11.70;99.90;;;;;;4924118;28;20047;-86
2023/03/30 06:03:46;;;;;;;13.10;4.50;;;11.70;99.90;;;;;;4939406;28;20070;-86
2023/03/30 06:06:12;;;;;;;18.30;4.25;;;11.80;99.90;;;;;;4924572;28;20054;-85
2023/03/30 06:08:39;;;;;;;19.48;4.65;;;11.80;99.90;;;;;;4922573;28;20044;-84
2023/03/30 06:11:05;;;;;;;18.85;4.28;;;11.80;99.90;;;;;;4956629;28;20138;-85
2023/03/30 06:13:32;;;;;;;15.60;3.75;;;11.80;99.90;;;;;;4940207;28;20038;-85
2023/03/30 06:15:57;;;;;;;16.23;4.38;;;11.80;99.90;;;;;;4954326;28;20054;-86
2023/03/30 06:18:23;;;;;;;15.18;4.25;;;11.90;99.90;;;;;;4953333;28;20108;-86
2023/03/30 06:20:50;;;;;;;16.13;4.88;;;11.90;99.90;;;;;;4952811;28;20062;-85
2023/03/30 06:23:16;;;;;;;15.38;4.18;;;12.00;99.90;;;;;;4970193;28;20039;-85
2023/03/30 06:25:46;;;;;;;12.88;4.60;;;12.00;99.90;;;;;;4968411;28;20398;-85
2023/03/30 06:28:12;;;;;;;11.73;4.20;;;12.00;99.90;;;;;;4954096;28;20082;-86
2023/03/30 06:30:38;;;;;;;9.02;3.25;;;12.00;99.90;;;;;;4950851;28;20069;-85
2023/03/30 06:33:04;;;;;;;10.68;3.80;;;12.00;99.90;;;;;;4952363;28;20133;-86
2023/03/30 06:35:29;;;;;;;9.13;3.70;;;12.00;99.90;;;;;;4955513;28;20129;-86
2023/03/30 06:37:56;;;;;;;11.63;3.67;;;12.00;99.90;;;;;;4957233;28;20160;-85
2023/03/30 06:40:22;;;;;;;16.67;4.70;;;12.00;99.90;;;;;;4956293;28;20097;-84
2023/03/30 06:42:47;;;;;;;15.02;4.32;;;12.00;99.90;;;;;;4957871;28;20050;-83
2023/03/30 06:45:13;;;;;;;16.08;4.18;;;12.00;99.90;;;;;;4957247;28;20038;-83
2023/03/30 06:47:40;;;;;;;14.13;4.38;;;12.00;99.90;;;;;;4956407;28;20057;-83
2023/03/30 06:50:06;;;;;;;15.43;3.95;;;12.00;99.90;;;;;;4951212;28;20047;-83
2023/03/30 06:52:34;;;;;;;18.42;4.78;;;12.00;99.90;;;;;;4952595;28;20517;-83
2023/03/30 06:55:00;;;;;;;19.58;4.72;;;12.10;99.90;;;;;;4938665;28;20050;-83
2023/03/30 06:57:26;;;;;;;11.48;3.60;;;12.10;99.90;;;;;;4954574;28;20319;-83
2023/03/30 06:59:52;;;;;;;13.40;4.07;;;12.20;99.90;;;;;;4953717;28;20101;-82
2023/03/30 07:02:17;;;;;;;15.18;3.63;;;12.30;99.90;;;;;;4937758;28;20158;-84
2023/03/30 07:04:45;;;;;;;12.13;3.55;;;12.30;99.90;;;;;;4938817;28;20034;-82
2023/03/30 07:07:12;;;;;;;15.73;3.30;;;12.40;99.90;;;;;;4936510;28;20042;-82
2023/03/30 07:09:37;;;;;;;18.80;3.60;;;12.40;99.90;;;;;;4954176;28;20094;-83
2023/03/30 07:12:03;;;;;;;12.25;3.55;;;12.40;99.90;;;;;;4953902;28;20078;-83
2023/03/30 07:14:30;;;;;;;11.30;3.50;;;12.30;99.90;;;;;;4937685;28;20047;-83
2023/03/30 07:16:56;;;;;;;9.45;2.78;;;12.30;99.90;;;;;;4937830;28;20105;-83
2023/03/30 07:19:22;;;;;;;16.50;3.20;;;12.30;99.90;;;;;;4938289;28;20047;-84
2023/03/30 07:21:47;;;;;;;18.45;3.33;;;12.30;99.90;;;;;;4953005;28;20077;-83
2023/03/30 07:24:14;;;;;;;20.50;3.28;;;12.40;99.90;;;;;;4937772;28;20157;-83
2023/03/30 07:26:40;;;;;;;19.63;3.33;;;12.40;99.90;;;;;;4937891;28;20089;-83
2023/03/30 07:29:06;;;;;;;12.95;3.13;;;12.40;99.90;;;;;;4953189;28;20047;-83
2023/03/30 07:31:32;;;;;;;17.08;3.28;;;12.40;99.90;;;;;;4933812;29;20044;-83
2023/03/30 07:33:57;;;;;;;21.05;3.15;;;12.50;99.90;;;;;;4934681;29;20085;-83
2023/03/30 07:36:23;;;;;;;18.08;3.50;;;12.50;99.90;;;;;;4932471;29;20168;-83
2023/03/30 07:38:50;;;;;;;15.05;3.05;;;12.50;99.90;;;;;;4934249;29;20086;-83
2023/03/30 07:41:16;;;;;;;16.80;2.88;;;12.50;99.90;;;;;;4934093;29;20039;-83
2023/03/30 07:43:42;;;;;;;24.38;3.35;;;12.30;99.90;;;;;;4933487;29;20131;-83
2023/03/30 07:46:10;;;;;;;17.88;3.20;;;12.30;99.90;;;;;;4933067;29;20405;-83
2023/03/30 07:48:36;;;;;;;18.23;3.15;;;12.30;99.90;;;;;;4933081;29;20491;-84
2023/03/30 07:51:05;;;;;;;18.40;3.33;;;12.20;99.90;;;;;;4933289;29;20086;-83
2023/03/30 07:53:32;;;;;;;16.10;3.80;;;12.20;99.90;;;;;;4933884;29;20134;-83
2023/03/30 07:55:57;;;;;;;19.98;3.92;;;12.20;99.90;;;;;;4933177;29;20661;-83
2023/03/30 07:58:25;;;;;;;20.48;3.65;;;12.20;99.90;;;;;;4933921;29;20039;-83
2023/03/30 08:00:52;;;;;;;24.67;4.57;;;12.10;99.90;;;;;;4933590;29;20058;-83
2023/03/30 08:03:20;;;;;;;18.10;3.45;;;12.10;99.90;;;;;;4933131;29;20059;-84
2023/03/30 08:05:54;;;;;;;24.85;4.05;;;12.00;99.90;;;;;;4932906;29;20089;-84
2023/03/30 08:08:21;;;;;;;22.60;4.32;;;12.00;99.90;;;;;;4933620;29;20059;-83
2023/03/30 08:10:47;;;;;;;24.98;3.85;;;11.90;99.90;;;;;;4932700;29;20411;-83
2023/03/30 08:13:12;;;;;;;21.88;4.95;;;11.90;99.90;;;;;;4933692;29;20049;-83
2023/03/30 08:15:38;;;;;;;29.30;4.47;;;11.80;99.90;;;;;;4932944;29;20047;-83
2023/03/30 08:18:06;;;;;;;25.83;4.47;;;11.80;99.90;;;;;;4933007;29;20231;-83
2023/03/30 08:20:36;;;;;;;25.70;4.28;;;11.70;99.90;;;;;;4932298;28;20055;-83
2023/03/30 08:23:05;;;;;;;22.60;3.78;;;11.70;99.90;;;;;;4933710;29;20439;-83
2023/03/30 08:25:31;;;;;;;27.80;4.18;;;11.70;99.90;;;;;;4932616;29;20432;-83
2023/03/30 08:27:57;;;;;;;35.38;5.35;;;11.70;99.90;;;;;;4933905;29;20050;-83
2023/03/30 08:30:23;;;;;;;29.83;4.53;;;11.70;99.90;;;;;;4916914;29;20474;-83
2023/03/30 08:32:49;;;;;;;30.88;4.95;;;11.70;99.90;;;;;;4916747;29;20059;-83
2023/03/30 08:35:15;;;;;;;31.05;4.43;;;11.70;99.90;;;;;;4917322;29;20097;-83
2023/03/30 08:37:41;;;;;;;29.30;5.30;;;11.70;99.90;;;;;;4932188;29;20054;-83
2023/03/30 08:40:10;;;;;;;27.85;4.78;;;11.70;99.90;;;;;;4916620;29;20053;-82
2023/03/30 08:43:00;;;;;;;27.73;4.53;;;11.60;99.90;;;;;;4916876;29;20055;-83
2023/03/30 08:45:35;;;;;;;39.65;5.75;;;11.60;99.90;;;;;;4932229;29;20086;-83
2023/03/30 08:48:02;;;;;;;23.65;4.28;;;11.60;99.90;;;;;;4932570;29;20058;-83
2023/03/30 08:50:35;;;;;;;32.83;5.60;;;11.60;99.90;;;;;;4916850;29;20039;-83
2023/03/30 08:53:03;;;;;;;;;;;11.60;99.90;;;;;;4916860;29;20051;-82
2023/03/30 08:55:41;;;;;;;28.23;5.70;;;11.50;99.90;;;;;;4933206;29;19926;-83
2023/03/30 08:58:22;;;;;;;31.88;4.88;;;11.50;99.90;;;;;;4932700;29;20047;-83
2023/03/30 09:01:00;;;;;;;29.40;5.38;;;11.50;99.90;;;;;;4916427;29;20062;-83
2023/03/30 09:03:27;;;;;;;31.95;5.30;;;11.50;99.90;;;;;;4917830;29;20501;-82
2023/03/30 09:05:59;;;;;;;31.50;5.78;;;11.60;99.90;;;;;;4932441;29;20043;-83
2023/03/30 09:08:28;;;;;;;31.93;5.40;;;11.80;99.90;;;;;;4916855;28;20097;-83
2023/03/30 09:10:59;;;;;;;32.97;5.82;;;11.90;99.90;;;;;;4932754;29;20451;-82
2023/03/30 09:13:30;;;;;;;37.42;5.57;;;12.00;99.90;;;;;;4916657;29;20153;-82
2023/03/30 09:16:20;;;;;;;29.73;4.80;;;12.10;99.90;;;;;;4932089;29;20058;-83
2023/03/30 09:18:52;;;;;;;29.40;5.28;;;12.30;99.90;;;;;;4917007;28;20047;-82
2023/03/30 09:21:22;;;;;;;25.20;5.15;;;12.50;99.90;;;;;;4915091;29;20075;-82
2023/03/30 09:23:48;;;;;;;35.45;5.60;;;12.60;99.90;;;;;;4916966;29;20090;-82
2023/03/30 09:26:33;;;;;;;28.52;5.28;;;12.60;99.90;;;;;;4932342;29;20055;-83
2023/03/30 09:29:13;;;;;;;27.05;5.10;;;12.70;99.90;;;;;;4916061;29;20047;-83
2023/03/30 09:31:47;;;;;;;30.48;5.35;;;12.70;99.90;;;;;;4931903;28;20130;-82
2023/03/30 09:34:34;;;;;;;28.77;5.45;;;12.70;99.90;;;;;;4915595;29;20043;-82
2023/03/30 09:37:05;;;;;;;29.50;5.18;;;12.80;99.90;;;;;;4915913;29;20075;-82
2023/03/30 09:39:34;;;;;;;27.83;5.07;;;13.00;99.90;;;;;;4932683;29;20416;-83
2023/03/30 09:42:10;;;;;;;26.77;4.43;;;13.10;99.90;;;;;;4915481;28;20039;-82
2023/03/30 09:44:51;;;;;;;24.52;4.57;;;13.20;99.90;;;;;;4932090;29;20043;-82
2023/03/30 09:47:28;;;;;;;24.48;4.43;;;13.40;99.90;;;;;;4916064;29;20130;-83
2023/03/30 09:49:56;;;;;;;20.23;3.90;;;13.50;99.90;;;;;;4915822;29;20082;-83
2023/03/30 09:52:25;;;;;;;23.10;4.38;;;13.50;99.90;;;;;;4914908;29;20043;-82
2023/03/30 09:54:51;;;;;;;25.80;4.47;;;13.40;99.90;;;;;;4916305;29;20050;-82
2023/03/30 09:57:28;;;;;;;22.88;4.07;;;13.30;99.90;;;;;;4914819;29;20054;-82
2023/03/30 09:59:55;;;;;;;17.20;3.33;;;13.20;99.90;;;;;;4916152;29;20134;-82
2023/03/30 10:02:23;;;;;;;18.45;3.50;;;13.00;99.90;;;;;;4915072;29;20218;-83
2023/03/30 10:04:51;;;;;;;18.77;3.70;;;12.90;99.90;;;;;;4916454;29;20050;-82
2023/03/30 10:07:22;;;;;;;24.92;4.80;;;12.80;99.90;;;;;;4930642;29;20118;-82
2023/03/30 10:09:48;;;;;;;21.10;3.83;;;12.70;99.90;;;;;;4917010;29;20479;-82
2023/03/30 10:12:14;;;;;;;28.38;4.38;;;12.60;99.90;;;;;;4935394;29;20051;-82
2023/03/30 10:14:40;;;;;;;23.00;3.40;;;12.60;99.90;;;;;;4936070;29;20399;-82
2023/03/30 10:17:06;;;;;;;16.30;3.25;;;12.50;99.90;;;;;;4934554;29;20050;-82
2023/03/30 10:19:34;;;;;;;22.20;3.80;;;12.50;99.90;;;;;;4935981;29;20116;-82
2023/03/30 10:22:09;;;;;;;18.92;3.70;;;12.50;99.90;;;;;;4935220;29;20055;-83
2023/03/30 10:24:46;;;;;;;19.75;3.58;;;12.60;99.90;;;;;;4919233;29;20150;-84
2023/03/30 10:27:13;;;;;;;20.45;3.92;;;12.70;99.90;;;;;;4919357;29;20039;-83
2023/03/30 10:29:45;;;;;;;20.00;4.28;;;12.80;99.90;;;;;;4919452;29;20511;-83
2023/03/30 10:32:25;;;;;;;21.20;3.33;;;12.90;99.90;;;;;;4934590;29;20414;-82
2023/03/30 10:34:54;;;;;;;14.80;2.67;;;12.90;99.90;;;;;;4935310;29;20387;-82
2023/03/30 10:37:31;;;;;;;23.42;3.60;;;12.90;99.90;;;;;;4918626;29;20047;-82
2023/03/30 10:40:00;;;;;;;23.63;3.90;;;12.80;99.90;;;;;;4919490;28;20047;-82
2023/03/30 10:42:30;;;;;;;22.33;3.92;;;12.80;99.90;;;;;;4919191;29;20043;-82
2023/03/30 10:45:01;;;;;;;21.13;3.25;;;12.80;99.90;;;;;;4919462;29;20047;-83
2023/03/30 10:47:39;;;;;;;19.92;3.58;;;12.80;99.90;;;;;;4919879;29;20043;-82
2023/03/30 10:50:15;;;;;;;22.27;4.45;;;12.80;99.90;;;;;;4935042;29;20435;-82
2023/03/30 10:53:16;;;;;;;22.15;3.53;;;13.00;99.90;;;;;;4917710;29;20058;-82
2023/03/30 10:55:50;;;;;;;21.83;3.80;;;13.10;99.90;;;;;;4918933;29;20101;-82
2023/03/30 10:58:35;;;;;;;21.02;3.78;;;13.20;99.90;;;;;;4941028;28;20499;-82
2023/03/30 11:01:11;;;;;;;22.00;3.58;;;13.20;99.90;;;;;;4930538;28;20040;-83
2023/03/30 11:03:41;;;;;;;19.83;3.63;;;13.10;99.90;;;;;;4939279;28;20038;-82
2023/03/30 11:06:15;;;;;;;27.20;4.13;;;13.10;99.90;;;;;;4935590;28;20050;-83
2023/03/30 11:08:46;;;;;;;28.45;4.25;;;13.10;99.90;;;;;;4951755;28;20067;-82
2023/03/30 11:11:35;;;;;;;21.35;3.97;;;13.00;99.90;;;;;;4950386;28;20391;-83
2023/03/30 11:14:07;;;;;;;21.33;4.15;;;13.00;99.90;;;;;;4950724;28;20051;-82
2023/03/30 11:16:46;;;;;;;19.65;3.53;;;13.00;99.90;;;;;;4931394;28;20069;-83
2023/03/30 11:19:20;;;;;;;24.38;4.20;;;13.10;99.90;;;;;;4949581;28;20395;-82
2023/03/30 11:22:01;;;;;;;25.67;4.03;;;13.10;99.90;;;;;;4934468;28;20031;-82
2023/03/30 11:24:27;;;;;;;30.23;4.47;;;13.10;99.90;;;;;;4951578;28;20384;-82
2023/03/30 11:27:12;;;;;;;24.05;5.05;;;13.20;99.90;;;;;;4951226;28;20042;-82
2023/03/30 11:30:09;;;;;;;27.65;4.55;;;13.30;99.90;;;;;;4931048;28;20043;-81
2023/03/30 11:32:51;;;;;;;27.17;4.40;;;13.40;99.90;;;;;;4949004;28;20043;-82
2023/03/30 11:35:24;;;;;;;30.35;5.22;;;13.50;99.90;;;;;;4946627;28;20063;-82
2023/03/30 11:38:11;;;;;;;22.30;3.80;;;13.60;99.90;;;;;;4936023;29;20081;-82
2023/03/30 11:40:43;;;;;;;30.48;4.57;;;13.70;99.90;;;;;;4932268;28;20051;-82
2023/03/30 11:43:13;;;;;;;25.23;3.78;;;13.60;99.90;;;;;;4944813;28;20046;-82
2023/03/30 11:45:43;;;;;;;23.02;4.40;;;13.60;99.90;;;;;;4951015;28;20439;-81
2023/03/30 11:48:23;;;;;;;18.77;4.05;;;13.70;99.90;;;;;;4932577;28;20134;-82
2023/03/30 11:51:08;;;;;;;32.20;3.97;;;13.80;99.90;;;;;;4932658;29;20043;-82
2023/03/30 11:53:53;;;;;;;19.48;3.97;;;14.00;99.90;;;;;;4917678;29;20046;-82
2023/03/30 11:56:37;;;;;;;20.13;4.00;;;14.00;99.90;;;;;;4932466;28;20077;-83
2023/03/30 11:59:05;;;;;;;25.75;4.45;;;13.90;99.90;;;;;;4918470;29;20130;-83
2023/03/30 12:02:01;;;;;;;25.17;3.88;;;13.90;99.90;;;;;;4933718;28;20515;-83
2023/03/30 12:04:36;;;;;;;18.38;3.35;;;13.90;99.90;;;;;;4936975;28;20086;-83
2023/03/30 12:07:08;;;;;;;22.90;4.40;;;13.80;99.90;;;;;;4928550;29;20518;-84
2023/03/30 12:09:37;;;;;;;21.42;3.80;;;13.90;99.90;;;;;;4946317;28;20051;-83
2023/03/30 12:12:15;;;;;;;17.55;3.10;;;13.90;99.90;;;;;;4933081;29;20047;-83
2023/03/30 12:15:12;;;;;;;26.08;4.75;;;13.70;99.90;;;;;;4926255;29;20054;-83
2023/03/30 12:17:42;;;;;;;25.02;4.35;;;13.80;99.90;;;;;;4932640;29;20524;-83
2023/03/30 12:20:08;;;;;;;31.95;5.05;;;13.80;99.90;;;;;;4916979;28;20496;-83
2023/03/30 12:22:47;;;;;;;21.30;4.13;;;13.90;99.90;;;;;;4932576;28;20145;-83
2023/03/30 12:25:27;;;;;;;21.30;3.38;;;14.00;99.90;;;;;;4932779;29;20163;-83
2023/03/30 12:27:57;;;;;;;21.30;3.63;;;14.00;99.90;;;;;;4917398;29;20031;-83
2023/03/30 12:30:27;;;;;;;26.48;4.25;;;13.90;99.90;;;;;;4932387;29;20126;-83
2023/03/30 12:32:59;;;;;;;21.05;4.22;;;14.00;99.90;;;;;;4916691;28;20120;-83
2023/03/30 12:35:46;;;;;;;22.97;3.83;;;14.00;99.90;;;;;;4933859;28;20101;-83
2023/03/30 12:38:16;;;;;;;25.80;4.10;;;14.10;99.90;;;;;;4931678;29;20047;-82
2023/03/30 12:40:51;;;;;;;21.35;3.38;;;14.00;99.90;;;;;;4917563;29;20377;-83
2023/03/30 12:43:35;;;;;;;20.95;3.83;;;14.00;99.90;;;;;;4945579;28;20061;-82
2023/03/30 12:46:18;;;;;;;18.67;3.75;;;13.90;99.90;;;;;;4932275;29;20043;-82
2023/03/30 12:48:53;;;;;;;;;;;13.90;99.90;;;;;;4925386;29;20043;-83
2023/03/30 12:51:40;;;;;;;15.55;3.00;;;13.80;99.90;;;;;;4931332;29;19926;-82
2023/03/30 12:54:30;;;;;;;25.75;4.47;;;13.80;99.90;;;;;;4933061;28;20646;-83